sensor_id;sensor_type;location;lat;lon;timestamp;pressure;altitude;pressure_sealevel;temperature;humidity
56142;BME280;42018;48.588;10.836;2023-02-18T00:00:41;97656.78;;;10.30;82.46
56142;BME280;42018;48.588;10.836;2023-02-18T00:03:28;97648.63;;;10.20;82.91
56142;BME280;42018;48.588;10.836;2023-02-18T00:09:00;97651.72;;;10.28;82.48
56142;BME280;42018;48.588;10.836;2023-02-18T00:11:46;97660.50;;;10.46;81.77
56142;BME280;42018;48.588;10.836;2023-02-18T00:14:31;97660.22;;;10.47;81.37
56142;BME280;42018;48.588;10.836;2023-02-18T00:17:17;97656.78;;;10.47;81.33
56142;BME280;42018;48.588;10.836;2023-02-18T00:20:04;97651.81;;;10.50;81.30
56142;BME280;42018;48.588;10.836;2023-02-18T00:22:50;97649.22;;;10.55;81.15
56142;BME280;42018;48.588;10.836;2023-02-18T00:25:35;97653.34;;;10.46;81.15
56142;BME280;42018;48.588;10.836;2023-02-18T00:28:21;97640.72;;;10.53;80.89
56142;BME280;42018;48.588;10.836;2023-02-18T00:31:11;97646.19;;;10.47;81.27
56142;BME280;42018;48.588;10.836;2023-02-18T00:33:57;97646.66;;;10.44;81.31
56142;BME280;42018;48.588;10.836;2023-02-18T00:36:43;97640.31;;;10.45;80.75
56142;BME280;42018;48.588;10.836;2023-02-18T00:39:29;97648.09;;;10.51;80.24
56142;BME280;42018;48.588;10.836;2023-02-18T00:42:14;97649.16;;;10.50;80.05
56142;BME280;42018;48.588;10.836;2023-02-18T00:44:59;97648.19;;;10.57;79.84
56142;BME280;42018;48.588;10.836;2023-02-18T00:47:45;97635.44;;;10.53;80.07
56142;BME280;42018;48.588;10.836;2023-02-18T00:50:30;97637.50;;;10.51;79.79
56142;BME280;42018;48.588;10.836;2023-02-18T00:53:15;97638.53;;;10.67;79.12
56142;BME280;42018;48.588;10.836;2023-02-18T00:56:01;97633.97;;;10.63;79.19
56142;BME280;42018;48.588;10.836;2023-02-18T00:58:47;97632.84;;;10.59;79.15
56142;BME280;42018;48.588;10.836;2023-02-18T01:01:32;97634.28;;;10.66;78.79
56142;BME280;42018;48.588;10.836;2023-02-18T01:04:19;97619.84;;;10.57;78.83
56142;BME280;42018;48.588;10.836;2023-02-18T01:07:04;97616.97;;;10.81;77.88
56142;BME280;42018;48.588;10.836;2023-02-18T01:09:50;97614.09;;;10.82;77.23
56142;BME280;42018;48.588;10.836;2023-02-18T01:12:35;97616.78;;;10.65;77.46
56142;BME280;42018;48.588;10.836;2023-02-18T01:15:21;97617.72;;;10.76;77.15
56142;BME280;42018;48.588;10.836;2023-02-18T01:18:07;97628.16;;;10.83;76.73
56142;BME280;42018;48.588;10.836;2023-02-18T01:20:53;97623.19;;;10.69;77.03
56142;BME280;42018;48.588;10.836;2023-02-18T01:23:40;97621.56;;;10.85;76.52
56142;BME280;42018;48.588;10.836;2023-02-18T01:26:25;97631.53;;;10.78;76.83
56142;BME280;42018;48.588;10.836;2023-02-18T01:29:10;97621.41;;;10.75;77.01
56142;BME280;42018;48.588;10.836;2023-02-18T01:31:56;97615.34;;;10.58;77.50
56142;BME280;42018;48.588;10.836;2023-02-18T01:34:41;97610.34;;;10.78;77.08
56142;BME280;42018;48.588;10.836;2023-02-18T01:37:27;97619.41;;;10.82;76.18
56142;BME280;42018;48.588;10.836;2023-02-18T01:40:16;97614.19;;;10.70;76.48
56142;BME280;42018;48.588;10.836;2023-02-18T01:43:02;97611.97;;;10.62;77.01
56142;BME280;42018;48.588;10.836;2023-02-18T01:46:17;97614.75;;;10.72;76.46
56142;BME280;42018;48.588;10.836;2023-02-18T01:49:03;97607.91;;;10.76;75.99
56142;BME280;42018;48.588;10.836;2023-02-18T01:52:01;97606.75;;;10.67;76.74
56142;BME280;42018;48.588;10.836;2023-02-18T01:54:49;97598.53;;;10.69;77.21
56142;BME280;42018;48.588;10.836;2023-02-18T01:57:36;97590.84;;;10.67;76.87
56142;BME280;42018;48.588;10.836;2023-02-18T02:00:23;97595.41;;;10.72;77.07
56142;BME280;42018;48.588;10.836;2023-02-18T02:03:08;97583.91;;;10.66;77.55
56142;BME280;42018;48.588;10.836;2023-02-18T02:05:53;97585.16;;;10.59;77.83
56142;BME280;42018;48.588;10.836;2023-02-18T02:08:39;97577.75;;;10.61;77.91
56142;BME280;42018;48.588;10.836;2023-02-18T02:14:30;97569.53;;;10.79;77.22
56142;BME280;42018;48.588;10.836;2023-02-18T02:17:44;97564.69;;;10.76;77.26
56142;BME280;42018;48.588;10.836;2023-02-18T02:24:22;97574.06;;;10.84;77.37
56142;BME280;42018;48.588;10.836;2023-02-18T02:33:19;97586.47;;;11.00;77.24
56142;BME280;42018;48.588;10.836;2023-02-18T02:36:13;97578.56;;;11.05;76.87
56142;BME280;42018;48.588;10.836;2023-02-18T02:51:24;97569.81;;;10.61;78.60
56142;BME280;42018;48.588;10.836;2023-02-18T03:00:14;97564.13;;;10.74;77.66
56142;BME280;42018;48.588;10.836;2023-02-18T03:03:34;97558.97;;;10.62;78.15
56142;BME280;42018;48.588;10.836;2023-02-18T03:24:45;97551.00;;;10.62;77.87
56142;BME280;42018;48.588;10.836;2023-02-18T03:27:34;97546.59;;;10.68;77.46
56142;BME280;42018;48.588;10.836;2023-02-18T03:30:26;97541.50;;;10.66;77.49
56142;BME280;42018;48.588;10.836;2023-02-18T03:33:16;97556.81;;;10.81;76.63
56142;BME280;42018;48.588;10.836;2023-02-18T03:36:02;97552.06;;;10.61;77.14
56142;BME280;42018;48.588;10.836;2023-02-18T03:39:10;97553.28;;;10.53;77.48
56142;BME280;42018;48.588;10.836;2023-02-18T03:41:58;97554.84;;;10.49;77.19
56142;BME280;42018;48.588;10.836;2023-02-18T03:44:44;97542.75;;;10.59;76.76
56142;BME280;42018;48.588;10.836;2023-02-18T03:47:29;97545.78;;;10.67;76.28
56142;BME280;42018;48.588;10.836;2023-02-18T03:50:15;97547.44;;;10.73;76.31
56142;BME280;42018;48.588;10.836;2023-02-18T03:53:00;97547.59;;;10.67;75.81
56142;BME280;42018;48.588;10.836;2023-02-18T03:55:46;97534.06;;;10.63;76.07
56142;BME280;42018;48.588;10.836;2023-02-18T03:58:31;97545.66;;;10.57;76.25
56142;BME280;42018;48.588;10.836;2023-02-18T04:01:16;97553.97;;;10.66;75.75
56142;BME280;42018;48.588;10.836;2023-02-18T04:04:02;97545.56;;;10.52;76.35
56142;BME280;42018;48.588;10.836;2023-02-18T04:06:47;97546.88;;;10.49;77.20
56142;BME280;42018;48.588;10.836;2023-02-18T04:09:32;97541.16;;;10.58;76.81
56142;BME280;42018;48.588;10.836;2023-02-18T04:12:18;97548.69;;;10.49;77.70
56142;BME280;42018;48.588;10.836;2023-02-18T04:15:03;97540.84;;;10.54;77.37
56142;BME280;42018;48.588;10.836;2023-02-18T04:17:49;97551.78;;;10.41;78.23
56142;BME280;42018;48.588;10.836;2023-02-18T04:20:35;97551.13;;;10.50;77.88
56142;BME280;42018;48.588;10.836;2023-02-18T04:23:21;97553.34;;;10.59;77.60
56142;BME280;42018;48.588;10.836;2023-02-18T04:26:06;97553.94;;;10.44;78.21
56142;BME280;42018;48.588;10.836;2023-02-18T04:28:52;97558.50;;;10.48;77.71
56142;BME280;42018;48.588;10.836;2023-02-18T04:31:37;97559.44;;;10.59;77.53
56142;BME280;42018;48.588;10.836;2023-02-18T04:34:22;97552.69;;;10.68;76.94
56142;BME280;42018;48.588;10.836;2023-02-18T04:37:08;97547.75;;;10.77;76.52
56142;BME280;42018;48.588;10.836;2023-02-18T04:39:53;97545.16;;;10.60;76.83
56142;BME280;42018;48.588;10.836;2023-02-18T04:42:39;97542.53;;;10.82;76.23
56142;BME280;42018;48.588;10.836;2023-02-18T04:45:25;97556.47;;;10.55;76.86
56142;BME280;42018;48.588;10.836;2023-02-18T04:48:10;97565.63;;;10.65;76.55
56142;BME280;42018;48.588;10.836;2023-02-18T04:50:56;97549.59;;;10.54;77.07
56142;BME280;42018;48.588;10.836;2023-02-18T04:53:41;97550.88;;;10.74;76.00
56142;BME280;42018;48.588;10.836;2023-02-18T04:56:26;97557.03;;;10.58;76.27
56142;BME280;42018;48.588;10.836;2023-02-18T04:59:12;97544.09;;;10.61;76.21
56142;BME280;42018;48.588;10.836;2023-02-18T05:01:57;97539.78;;;10.77;75.48
56142;BME280;42018;48.588;10.836;2023-02-18T05:04:42;97543.84;;;10.63;75.91
56142;BME280;42018;48.588;10.836;2023-02-18T05:07:28;97538.56;;;10.63;75.82
56142;BME280;42018;48.588;10.836;2023-02-18T05:10:15;97532.22;;;10.64;75.79
56142;BME280;42018;48.588;10.836;2023-02-18T05:13:02;97526.19;;;10.68;75.44
56142;BME280;42018;48.588;10.836;2023-02-18T05:15:48;97529.97;;;10.55;75.56
56142;BME280;42018;48.588;10.836;2023-02-18T05:18:33;97537.78;;;10.45;75.98
56142;BME280;42018;48.588;10.836;2023-02-18T05:21:18;97531.34;;;10.58;76.06
56142;BME280;42018;48.588;10.836;2023-02-18T05:24:04;97525.13;;;10.47;76.23
56142;BME280;42018;48.588;10.836;2023-02-18T05:26:49;97523.91;;;10.38;76.74
56142;BME280;42018;48.588;10.836;2023-02-18T05:29:35;97517.44;;;10.29;77.05
56142;BME280;42018;48.588;10.836;2023-02-18T05:32:20;97521.28;;;10.38;76.42
56142;BME280;42018;48.588;10.836;2023-02-18T05:35:06;97530.28;;;10.37;76.66
56142;BME280;42018;48.588;10.836;2023-02-18T05:37:52;97533.53;;;10.44;76.30
56142;BME280;42018;48.588;10.836;2023-02-18T05:40:37;97532.09;;;10.53;75.92
56142;BME280;42018;48.588;10.836;2023-02-18T05:43:23;97537.78;;;10.45;76.00
56142;BME280;42018;48.588;10.836;2023-02-18T05:46:08;97532.34;;;10.35;76.34
56142;BME280;42018;48.588;10.836;2023-02-18T05:48:53;97536.63;;;10.36;76.43
56142;BME280;42018;48.588;10.836;2023-02-18T05:51:39;97546.91;;;10.33;76.07
56142;BME280;42018;48.588;10.836;2023-02-18T05:54:25;97548.34;;;10.40;75.74
56142;BME280;42018;48.588;10.836;2023-02-18T05:57:13;97543.81;;;10.58;74.88
56142;BME280;42018;48.588;10.836;2023-02-18T05:59:59;97548.81;;;10.37;75.38
56142;BME280;42018;48.588;10.836;2023-02-18T06:02:44;97553.94;;;10.44;75.56
56142;BME280;42018;48.588;10.836;2023-02-18T06:05:29;97554.38;;;10.36;74.78
56142;BME280;42018;48.588;10.836;2023-02-18T06:08:15;97557.88;;;10.41;74.44
56142;BME280;42018;48.588;10.836;2023-02-18T06:11:00;97557.88;;;10.41;74.22
56142;BME280;42018;48.588;10.836;2023-02-18T06:13:46;97556.34;;;10.45;73.62
56142;BME280;42018;48.588;10.836;2023-02-18T06:16:31;97541.63;;;10.54;73.30
56142;BME280;42018;48.588;10.836;2023-02-18T06:19:16;97538.06;;;10.66;72.70
56142;BME280;42018;48.588;10.836;2023-02-18T06:22:02;97546.19;;;10.59;72.84
56142;BME280;42018;48.588;10.836;2023-02-18T06:24:48;97537.41;;;10.53;73.55
56142;BME280;42018;48.588;10.836;2023-02-18T06:27:33;97535.16;;;10.45;73.44
56142;BME280;42018;48.588;10.836;2023-02-18T06:30:18;97534.81;;;10.42;74.10
56142;BME280;42018;48.588;10.836;2023-02-18T06:33:04;97546.00;;;10.44;74.02
56142;BME280;42018;48.588;10.836;2023-02-18T06:35:58;97538.22;;;10.37;74.37
56142;BME280;42018;48.588;10.836;2023-02-18T06:38:44;97543.56;;;10.42;74.57
56142;BME280;42018;48.588;10.836;2023-02-18T06:41:30;97551.31;;;10.27;75.51
56142;BME280;42018;48.588;10.836;2023-02-18T06:44:15;97550.19;;;10.40;75.40
56142;BME280;42018;48.588;10.836;2023-02-18T06:47:01;97538.78;;;10.39;75.51
56142;BME280;42018;48.588;10.836;2023-02-18T06:49:47;97549.91;;;10.24;75.91
56142;BME280;42018;48.588;10.836;2023-02-18T06:52:32;97558.38;;;10.21;76.42
56142;BME280;42018;48.588;10.836;2023-02-18T06:55:18;97553.22;;;10.31;76.63
56142;BME280;42018;48.588;10.836;2023-02-18T06:58:04;97542.06;;;10.13;76.95
56142;BME280;42018;48.588;10.836;2023-02-18T07:00:49;97547.13;;;10.31;76.95
56142;BME280;42018;48.588;10.836;2023-02-18T07:03:34;97547.88;;;10.26;77.02
56142;BME280;42018;48.588;10.836;2023-02-18T07:06:20;97551.09;;;10.28;77.10
56142;BME280;42018;48.588;10.836;2023-02-18T07:09:05;97558.69;;;10.25;77.36
56142;BME280;42018;48.588;10.836;2023-02-18T07:11:50;97552.91;;;10.28;77.41
56142;BME280;42018;48.588;10.836;2023-02-18T07:14:36;97560.13;;;10.49;77.00
56142;BME280;42018;48.588;10.836;2023-02-18T07:17:21;97565.81;;;10.41;76.96
56142;BME280;42018;48.588;10.836;2023-02-18T07:20:07;97568.63;;;10.35;77.17
56142;BME280;42018;48.588;10.836;2023-02-18T07:22:53;97553.63;;;10.40;77.23
56142;BME280;42018;48.588;10.836;2023-02-18T07:25:38;97567.75;;;10.46;77.10
56142;BME280;42018;48.588;10.836;2023-02-18T07:28:24;97549.16;;;10.63;76.64
56142;BME280;42018;48.588;10.836;2023-02-18T07:31:09;97539.66;;;10.67;76.37
56142;BME280;42018;48.588;10.836;2023-02-18T07:33:54;97538.63;;;10.46;77.18
56142;BME280;42018;48.588;10.836;2023-02-18T07:36:40;97538.72;;;10.56;77.24
56142;BME280;42018;48.588;10.836;2023-02-18T07:39:26;97533.13;;;10.52;76.50
56142;BME280;42018;48.588;10.836;2023-02-18T07:42:12;97535.88;;;10.41;77.56
56142;BME280;42018;48.588;10.836;2023-02-18T07:44:58;97530.19;;;10.71;76.54
56142;BME280;42018;48.588;10.836;2023-02-18T07:47:43;97524.69;;;10.55;76.63
56142;BME280;42018;48.588;10.836;2023-02-18T07:50:30;97521.72;;;10.52;76.91
56142;BME280;42018;48.588;10.836;2023-02-18T07:53:19;97515.00;;;10.44;77.35
56142;BME280;42018;48.588;10.836;2023-02-18T07:56:05;97527.59;;;10.54;76.76
56142;BME280;42018;48.588;10.836;2023-02-18T07:58:50;97524.81;;;10.66;76.51
56142;BME280;42018;48.588;10.836;2023-02-18T08:01:36;97513.16;;;10.67;76.67
56142;BME280;42018;48.588;10.836;2023-02-18T08:04:21;97509.41;;;10.63;76.45
56142;BME280;42018;48.588;10.836;2023-02-18T08:07:06;97506.88;;;10.95;75.42
56142;BME280;42018;48.588;10.836;2023-02-18T08:09:52;97514.22;;;10.88;75.58
56142;BME280;42018;48.588;10.836;2023-02-18T08:12:37;97498.59;;;10.91;75.22
56142;BME280;42018;48.588;10.836;2023-02-18T08:15:23;97509.78;;;10.93;75.30
56142;BME280;42018;48.588;10.836;2023-02-18T08:18:14;97492.50;;;10.91;75.39
56142;BME280;42018;48.588;10.836;2023-02-18T08:20:59;97486.56;;;11.06;75.11
56142;BME280;42018;48.588;10.836;2023-02-18T08:23:45;97479.41;;;11.06;74.87
56142;BME280;42018;48.588;10.836;2023-02-18T08:26:30;97486.97;;;10.92;75.17
56142;BME280;42018;48.588;10.836;2023-02-18T08:29:16;97487.72;;;11.15;74.24
56142;BME280;42018;48.588;10.836;2023-02-18T08:32:01;97482.41;;;11.15;73.76
56142;BME280;42018;48.588;10.836;2023-02-18T08:34:47;97484.31;;;11.46;73.60
56142;BME280;42018;48.588;10.836;2023-02-18T08:37:32;97480.19;;;11.61;72.95
56142;BME280;42018;48.588;10.836;2023-02-18T08:40:18;97485.38;;;11.18;73.38
56142;BME280;42018;48.588;10.836;2023-02-18T08:43:03;97484.09;;;11.21;73.64
56142;BME280;42018;48.588;10.836;2023-02-18T08:45:48;97476.28;;;11.41;72.79
56142;BME280;42018;48.588;10.836;2023-02-18T08:48:34;97477.94;;;11.47;72.83
56142;BME280;42018;48.588;10.836;2023-02-18T08:51:21;97483.13;;;11.32;73.00
56142;BME280;42018;48.588;10.836;2023-02-18T08:54:06;97480.00;;;11.40;73.08
56142;BME280;42018;48.588;10.836;2023-02-18T08:56:55;97494.75;;;11.31;73.03
56142;BME280;42018;48.588;10.836;2023-02-18T08:59:42;97464.94;;;11.19;73.40
56142;BME280;42018;48.588;10.836;2023-02-18T09:02:27;97469.78;;;11.27;73.00
56142;BME280;42018;48.588;10.836;2023-02-18T09:05:13;97464.19;;;11.23;72.91
56142;BME280;42018;48.588;10.836;2023-02-18T09:07:58;97472.31;;;11.39;72.92
56142;BME280;42018;48.588;10.836;2023-02-18T09:10:44;97454.16;;;11.31;73.27
56142;BME280;42018;48.588;10.836;2023-02-18T09:13:30;97453.03;;;11.21;73.06
56142;BME280;42018;48.588;10.836;2023-02-18T09:16:17;97453.50;;;11.45;72.34
56142;BME280;42018;48.588;10.836;2023-02-18T09:19:03;97454.31;;;11.46;71.64
56142;BME280;42018;48.588;10.836;2023-02-18T09:21:48;97437.00;;;11.70;70.67
56142;BME280;42018;48.588;10.836;2023-02-18T09:24:39;97444.97;;;11.70;70.72
56142;BME280;42018;48.588;10.836;2023-02-18T09:27:25;97436.38;;;11.58;70.23
56142;BME280;42018;48.588;10.836;2023-02-18T09:30:10;97452.09;;;11.70;69.97
56142;BME280;42018;48.588;10.836;2023-02-18T09:32:56;97438.41;;;11.83;69.49
56142;BME280;42018;48.588;10.836;2023-02-18T09:35:43;97440.31;;;11.88;69.18
56142;BME280;42018;48.588;10.836;2023-02-18T09:38:29;97433.75;;;12.01;68.87
56142;BME280;42018;48.588;10.836;2023-02-18T09:47:29;97437.22;;;11.69;69.78
56142;BME280;42018;48.588;10.836;2023-02-18T09:53:04;97426.75;;;11.84;69.08
56142;BME280;42018;48.588;10.836;2023-02-18T09:55:54;97422.97;;;11.80;69.05
56142;BME280;42018;48.588;10.836;2023-02-18T09:58:42;97430.81;;;11.97;69.06
56142;BME280;42018;48.588;10.836;2023-02-18T10:01:33;97424.13;;;11.89;68.03
56142;BME280;42018;48.588;10.836;2023-02-18T10:04:28;97427.94;;;12.04;67.60
56142;BME280;42018;48.588;10.836;2023-02-18T10:07:22;97412.22;;;12.02;67.50
56142;BME280;42018;48.588;10.836;2023-02-18T10:10:21;97408.81;;;12.07;66.81
56142;BME280;42018;48.588;10.836;2023-02-18T10:13:17;97416.53;;;12.08;66.77
56142;BME280;42018;48.588;10.836;2023-02-18T10:16:04;97407.19;;;12.01;66.69
56142;BME280;42018;48.588;10.836;2023-02-18T10:18:55;97393.94;;;12.06;66.50
56142;BME280;42018;48.588;10.836;2023-02-18T10:21:42;97400.38;;;12.15;65.31
56142;BME280;42018;48.588;10.836;2023-02-18T10:24:31;97386.91;;;12.37;65.76
56142;BME280;42018;48.588;10.836;2023-02-18T10:27:26;97378.91;;;12.32;65.58
56142;BME280;42018;48.588;10.836;2023-02-18T10:36:25;97381.16;;;12.76;65.66
56142;BME280;42018;48.588;10.836;2023-02-18T10:45:37;97387.41;;;12.34;65.05
56142;BME280;42018;48.588;10.836;2023-02-18T10:51:33;97393.66;;;12.80;65.63
56142;BME280;42018;48.588;10.836;2023-02-18T10:54:24;97394.75;;;12.84;65.21
56142;BME280;42018;48.588;10.836;2023-02-18T10:57:17;97387.28;;;12.86;64.47
56142;BME280;42018;48.588;10.836;2023-02-18T11:00:25;97386.22;;;12.77;65.14
56142;BME280;42018;48.588;10.836;2023-02-18T11:03:16;97376.94;;;12.85;64.89
56142;BME280;42018;48.588;10.836;2023-02-18T11:06:03;97372.94;;;13.08;64.66
56142;BME280;42018;48.588;10.836;2023-02-18T11:08:49;97376.41;;;13.18;64.41
56142;BME280;42018;48.588;10.836;2023-02-18T11:11:40;97376.38;;;12.78;64.55
56142;BME280;42018;48.588;10.836;2023-02-18T11:14:42;97376.09;;;12.69;64.40
56142;BME280;42018;48.588;10.836;2023-02-18T11:17:32;97360.09;;;12.59;64.60
56142;BME280;42018;48.588;10.836;2023-02-18T11:20:33;97362.00;;;12.84;64.27
56142;BME280;42018;48.588;10.836;2023-02-18T11:23:20;97352.19;;;12.89;64.57
56142;BME280;42018;48.588;10.836;2023-02-18T11:26:10;97357.25;;;12.96;64.71
56142;BME280;42018;48.588;10.836;2023-02-18T11:29:00;97355.13;;;13.03;64.58
56142;BME280;42018;48.588;10.836;2023-02-18T11:31:53;97351.38;;;12.84;65.52
56142;BME280;42018;48.588;10.836;2023-02-18T11:34:41;97350.09;;;12.91;65.70
56142;BME280;42018;48.588;10.836;2023-02-18T11:37:27;97354.06;;;12.94;65.84
56142;BME280;42018;48.588;10.836;2023-02-18T11:40:24;97357.22;;;12.76;65.20
56142;BME280;42018;48.588;10.836;2023-02-18T11:43:14;97346.31;;;12.67;65.66
56142;BME280;42018;48.588;10.836;2023-02-18T11:46:20;97334.88;;;12.56;65.38
56142;BME280;42018;48.588;10.836;2023-02-18T11:49:19;97322.38;;;12.57;65.83
56142;BME280;42018;48.588;10.836;2023-02-18T11:52:18;97315.47;;;12.71;64.91
56142;BME280;42018;48.588;10.836;2023-02-18T11:58:03;97289.69;;;12.72;64.97
56142;BME280;42018;48.588;10.836;2023-02-18T12:00:50;97286.25;;;12.71;65.20
56142;BME280;42018;48.588;10.836;2023-02-18T12:03:45;97290.47;;;12.72;65.44
56142;BME280;42018;48.588;10.836;2023-02-18T12:09:47;97279.84;;;12.98;65.11
56142;BME280;42018;48.588;10.836;2023-02-18T12:12:53;97281.44;;;13.14;64.29
56142;BME280;42018;48.588;10.836;2023-02-18T12:46:26;97277.97;;;13.13;63.39
56142;BME280;42018;48.588;10.836;2023-02-18T13:14:24;97243.66;;;13.32;63.48
56142;BME280;42018;48.588;10.836;2023-02-18T13:17:14;97247.31;;;13.52;61.92
56142;BME280;42018;48.588;10.836;2023-02-18T13:20:24;97247.34;;;13.36;61.57
56142;BME280;42018;48.588;10.836;2023-02-18T13:23:21;97242.91;;;13.86;61.24
56142;BME280;42018;48.588;10.836;2023-02-18T13:26:10;97238.97;;;13.79;61.47
56142;BME280;42018;48.588;10.836;2023-02-18T13:32:00;97234.13;;;14.75;56.59
56142;BME280;42018;48.588;10.836;2023-02-18T13:35:16;97227.72;;;15.05;52.50
56142;BME280;42018;48.588;10.836;2023-02-18T13:41:09;97233.25;;;15.38;51.87
56142;BME280;42018;48.588;10.836;2023-02-18T13:43:55;97227.03;;;15.18;50.27
56142;BME280;42018;48.588;10.836;2023-02-18T13:46:52;97221.66;;;15.23;50.93
56142;BME280;42018;48.588;10.836;2023-02-18T13:49:38;97228.94;;;14.89;51.60
56142;BME280;42018;48.588;10.836;2023-02-18T13:52:26;97237.31;;;14.32;51.99
56142;BME280;42018;48.588;10.836;2023-02-18T13:55:19;97236.69;;;14.51;52.85
56142;BME280;42018;48.588;10.836;2023-02-18T13:58:28;97233.72;;;14.13;52.73
56142;BME280;42018;48.588;10.836;2023-02-18T14:04:33;97222.53;;;14.11;52.33
56142;BME280;42018;48.588;10.836;2023-02-18T14:07:32;97240.59;;;13.70;52.87
56142;BME280;42018;48.588;10.836;2023-02-18T14:10:31;97236.41;;;14.08;52.32
56142;BME280;42018;48.588;10.836;2023-02-18T14:13:24;97234.47;;;14.19;52.30
56142;BME280;42018;48.588;10.836;2023-02-18T14:16:10;97242.28;;;14.10;52.18
56142;BME280;42018;48.588;10.836;2023-02-18T14:19:00;97234.03;;;14.06;52.45
56142;BME280;42018;48.588;10.836;2023-02-18T14:21:45;97231.31;;;14.17;52.01
56142;BME280;42018;48.588;10.836;2023-02-18T14:24:48;97242.31;;;14.00;52.36
56142;BME280;42018;48.588;10.836;2023-02-18T14:27:34;97226.72;;;13.73;52.09
56142;BME280;42018;48.588;10.836;2023-02-18T14:33:13;97236.59;;;13.72;54.42
56142;BME280;42018;48.588;10.836;2023-02-18T14:51:43;97228.22;;;14.38;53.25
56142;BME280;42018;48.588;10.836;2023-02-18T14:54:32;97224.47;;;14.40;52.61
56142;BME280;42018;48.588;10.836;2023-02-18T14:57:18;97224.22;;;14.41;52.37
56142;BME280;42018;48.588;10.836;2023-02-18T15:00:15;97233.88;;;14.32;52.31
56142;BME280;42018;48.588;10.836;2023-02-18T15:03:01;97241.72;;;14.13;53.20
56142;BME280;42018;48.588;10.836;2023-02-18T15:05:48;97233.66;;;13.69;53.34
56142;BME280;42018;48.588;10.836;2023-02-18T15:08:37;97226.00;;;13.52;54.53
56142;BME280;42018;48.588;10.836;2023-02-18T15:11:31;97241.22;;;13.46;54.61
56142;BME280;42018;48.588;10.836;2023-02-18T15:14:22;97235.66;;;13.32;54.58
56142;BME280;42018;48.588;10.836;2023-02-18T15:17:18;97238.03;;;13.39;54.70
56142;BME280;42018;48.588;10.836;2023-02-18T15:20:05;97246.03;;;13.34;55.53
56142;BME280;42018;48.588;10.836;2023-02-18T15:22:50;97235.38;;;13.18;55.10
56142;BME280;42018;48.588;10.836;2023-02-18T15:25:36;97232.22;;;13.01;55.96
56142;BME280;42018;48.588;10.836;2023-02-18T15:28:27;97227.22;;;12.84;56.25
56142;BME280;42018;48.588;10.836;2023-02-18T15:31:12;97228.25;;;12.93;56.71
56142;BME280;42018;48.588;10.836;2023-02-18T15:33:58;97224.78;;;13.03;56.67
56142;BME280;42018;48.588;10.836;2023-02-18T15:36:49;97219.75;;;12.97;56.42
56142;BME280;42018;48.588;10.836;2023-02-18T15:39:34;97239.72;;;12.74;56.60
56142;BME280;42018;48.588;10.836;2023-02-18T15:42:32;97226.69;;;12.67;56.58
56142;BME280;42018;48.588;10.836;2023-02-18T15:45:18;97233.59;;;12.68;56.97
56142;BME280;42018;48.588;10.836;2023-02-18T15:48:05;97227.72;;;12.66;56.88
56142;BME280;42018;48.588;10.836;2023-02-18T15:50:53;97225.06;;;12.76;56.71
56142;BME280;42018;48.588;10.836;2023-02-18T15:53:41;97221.63;;;12.70;57.00
56142;BME280;42018;48.588;10.836;2023-02-18T15:56:36;97220.03;;;12.64;57.28
56142;BME280;42018;48.588;10.836;2023-02-18T15:59:33;97224.00;;;12.52;57.59
56142;BME280;42018;48.588;10.836;2023-02-18T16:02:21;97212.84;;;12.44;57.80
56142;BME280;42018;48.588;10.836;2023-02-18T16:05:13;97213.66;;;12.35;57.96
56142;BME280;42018;48.588;10.836;2023-02-18T16:08:02;97214.72;;;12.44;58.07
56142;BME280;42018;48.588;10.836;2023-02-18T16:10:59;97208.06;;;12.36;57.88
56142;BME280;42018;48.588;10.836;2023-02-18T16:13:46;97217.88;;;12.31;58.49
56142;BME280;42018;48.588;10.836;2023-02-18T16:16:35;97215.25;;;12.36;58.22
56142;BME280;42018;48.588;10.836;2023-02-18T16:19:24;97210.47;;;12.33;58.21
56142;BME280;42018;48.588;10.836;2023-02-18T16:30:44;97218.84;;;11.84;59.88
56142;BME280;42018;48.588;10.836;2023-02-18T16:33:30;97218.03;;;11.78;60.15
56142;BME280;42018;48.588;10.836;2023-02-18T16:36:16;97214.81;;;11.76;60.35
56142;BME280;42018;48.588;10.836;2023-02-18T16:39:02;97213.47;;;11.73;60.54
56142;BME280;42018;48.588;10.836;2023-02-18T16:41:47;97214.88;;;11.86;60.44
56142;BME280;42018;48.588;10.836;2023-02-18T16:44:33;97216.13;;;11.68;60.22
56142;BME280;42018;48.588;10.836;2023-02-18T16:47:19;97211.38;;;11.75;60.02
56142;BME280;42018;48.588;10.836;2023-02-18T16:50:05;97214.59;;;11.78;60.88
56142;BME280;42018;48.588;10.836;2023-02-18T16:52:50;97219.81;;;11.62;61.11
56142;BME280;42018;48.588;10.836;2023-02-18T16:55:36;97216.88;;;11.59;61.18
56142;BME280;42018;48.588;10.836;2023-02-18T16:58:21;97219.53;;;11.59;61.42
56142;BME280;42018;48.588;10.836;2023-02-18T17:01:21;97224.28;;;11.51;61.51
56142;BME280;42018;48.588;10.836;2023-02-18T17:04:10;97232.75;;;11.48;61.77
56142;BME280;42018;48.588;10.836;2023-02-18T17:06:56;97224.78;;;11.43;61.55
56142;BME280;42018;48.588;10.836;2023-02-18T17:09:42;97227.53;;;11.64;61.52
56142;BME280;42018;48.588;10.836;2023-02-18T17:12:27;97218.97;;;11.46;61.58
56142;BME280;42018;48.588;10.836;2023-02-18T17:15:30;97222.88;;;11.34;62.13
56142;BME280;42018;48.588;10.836;2023-02-18T17:18:16;97219.72;;;11.37;62.10
56142;BME280;42018;48.588;10.836;2023-02-18T17:21:02;97219.44;;;11.33;62.26
56142;BME280;42018;48.588;10.836;2023-02-18T17:23:48;97224.00;;;11.43;62.22
56142;BME280;42018;48.588;10.836;2023-02-18T17:26:34;97222.06;;;11.28;62.52
56142;BME280;42018;48.588;10.836;2023-02-18T17:29:19;97221.88;;;11.45;62.00
56142;BME280;42018;48.588;10.836;2023-02-18T17:32:06;97234.25;;;11.29;62.29
56142;BME280;42018;48.588;10.836;2023-02-18T17:34:53;97237.03;;;11.55;61.88